createdAt,value
2018-06-15T00:02:30.478Z,271.13
2018-06-15T00:19:59.335Z,575.70
2018-06-15T00:22:36.917Z,596.87
2018-06-15T00:25:16.063Z,574.10
2018-06-15T00:27:56.120Z,555.43
2018-06-15T00:30:35.986Z,505.87
2018-06-15T00:33:15.838Z,552.37
2018-06-15T00:35:59.760Z,518.53
2018-06-15T00:38:41.920Z,501.63
2018-06-15T00:41:19.753Z,542.63
2018-06-15T00:44:02.356Z,538.87
2018-06-15T00:46:43.156Z,496.57
2018-06-15T00:49:22.698Z,468.63
2018-06-15T00:52:03.557Z,527.93
2018-06-15T00:54:45.321Z,524.83
2018-06-15T00:57:36.117Z,538.53
2018-06-15T01:00:15.917Z,525.87
2018-06-15T01:02:55.821Z,490.20
2018-06-15T01:05:35.698Z,444.30
2018-06-15T01:08:21.799Z,393.60
2018-06-15T01:11:02.220Z,400.00
2018-06-15T01:13:47.921Z,368.40
2018-06-15T01:16:26.879Z,392.40
2018-06-15T01:19:07.428Z,353.90
2018-06-15T02:36:14.114Z,757.50
2018-06-15T02:38:58.315Z,639.50
2018-06-15T02:41:43.133Z,788.07
2018-06-15T02:44:32.209Z,724.40
2018-06-15T02:47:14.410Z,700.17
2018-06-15T02:49:54.593Z,689.67
2018-06-15T02:52:35.049Z,634.20
2018-06-15T02:55:15.973Z,531.87
2018-06-15T02:57:55.949Z,649.93
2018-06-15T03:00:35.174Z,569.30
2018-06-15T03:03:22.755Z,465.03
2018-06-15T03:06:03.833Z,498.03
2018-06-15T03:08:43.075Z,501.63
2018-06-15T03:11:23.712Z,404.83
2018-06-15T03:14:03.991Z,483.00
2018-06-15T03:16:42.096Z,402.27
2018-06-15T03:19:31.056Z,323.67
2018-06-15T03:22:12.814Z,401.07
2018-06-15T03:24:58.312Z,545.83
2018-06-15T03:27:42.522Z,539.73
2018-06-15T03:30:22.893Z,434.73
2018-06-15T03:33:02.294Z,543.60
2018-06-15T03:35:43.060Z,642.63
2018-06-15T03:38:23.014Z,554.00
2018-06-15T03:41:10.672Z,475.30
2018-06-15T03:43:47.794Z,421.23
2018-06-15T03:46:28.230Z,484.47
2018-06-15T03:49:07.873Z,421.20
2018-06-15T03:51:46.090Z,418.73
2018-06-15T03:54:23.927Z,540.73
2018-06-15T03:57:02.863Z,492.93
2018-06-15T03:59:46.448Z,533.40
2018-06-15T04:02:24.137Z,714.07
2018-06-15T04:05:05.257Z,604.27
2018-06-15T04:07:43.003Z,671.40
2018-06-15T04:10:23.453Z,640.23
2018-06-15T04:13:11.508Z,702.80
2018-06-15T04:15:50.472Z,698.17
2018-06-15T04:18:28.516Z,719.87
2018-06-15T04:21:08.831Z,699.17
2018-06-15T04:23:49.794Z,697.13
2018-06-15T04:26:28.334Z,729.47
2018-06-15T04:29:08.542Z,795.23
2018-06-15T04:31:54.578Z,790.60
2018-06-15T04:34:35.100Z,794.53
2018-06-15T04:37:16.497Z,746.20
2018-06-15T04:39:57.253Z,732.07
2018-06-15T04:42:39.556Z,488.27
2018-06-15T04:45:24.218Z,365.90
2018-06-15T04:48:02.336Z,296.13
2018-06-15T04:50:41.554Z,464.30
2018-06-15T04:53:22.076Z,297.60
2018-06-15T04:56:05.955Z,342.93
2018-06-15T04:58:45.176Z,290.13
2018-06-15T14:10:30.362Z,27.00
2018-06-15T14:13:15.083Z,28.60
2018-06-15T14:15:58.216Z,51.35
2018-06-15T14:18:49.620Z,33.23
2018-06-15T14:21:40.441Z,28.77
2018-06-15T14:24:19.278Z,45.45
2018-06-15T14:27:07.923Z,40.63
2018-06-15T14:29:46.136Z,31.25
2018-06-15T14:32:35.684Z,31.20
2018-06-15T14:35:13.525Z,33.10
2018-06-15T14:54:27.592Z,67.75
2018-06-15T14:57:16.270Z,57.45
2018-06-15T14:59:58.344Z,75.62
2018-06-15T15:02:38.380Z,105.05
2018-06-15T15:05:21.777Z,69.37
2018-06-15T15:08:03.135Z,50.50
2018-06-15T15:10:39.974Z,61.25
2018-06-15T15:13:19.569Z,44.73
2018-06-15T15:15:57.095Z,43.93
2018-06-15T15:18:38.038Z,59.20
2018-06-15T15:21:24.815Z,88.33
2018-06-15T15:24:02.640Z,87.67
2018-06-15T15:26:41.395Z,88.95
2018-06-15T15:29:24.044Z,60.98
2018-06-15T15:32:06.892Z,32.98
2018-06-15T15:34:49.454Z,29.37
2018-06-15T15:37:27.191Z,31.07
2018-06-15T15:40:22.360Z,64.03
2018-06-15T15:43:17.534Z,82.55
2018-06-15T15:46:09.497Z,69.75
2018-06-15T15:49:03.932Z,86.80
2018-06-15T15:51:58.988Z,76.77
2018-06-15T15:54:38.693Z,79.20
2018-06-15T15:57:20.876Z,73.80
2018-06-15T16:00:02.801Z,81.35
2018-06-15T16:02:41.472Z,90.63
2018-06-15T16:05:21.401Z,89.67
2018-06-15T16:08:02.877Z,72.40
2018-06-15T16:10:48.549Z,76.33
2018-06-15T16:13:31.896Z,78.17
2018-06-15T16:16:13.795Z,77.50
2018-06-15T16:18:52.012Z,70.97
2018-06-15T16:21:31.073Z,76.00
2018-06-15T16:24:12.956Z,60.67
2018-06-15T16:29:51.776Z,53.37
2018-06-15T16:32:32.653Z,38.60
2018-06-15T16:35:13.714Z,69.13
2018-06-15T16:37:54.759Z,72.30
2018-06-15T16:40:32.652Z,63.37
2018-06-15T16:43:13.297Z,61.03
2018-06-15T16:45:53.473Z,41.23
2018-06-15T16:48:32.520Z,38.40
2018-06-15T16:51:11.932Z,62.50
2018-06-15T16:53:48.850Z,137.20
2018-06-15T16:56:31.277Z,415.27
2018-06-15T16:59:11.718Z,360.80
2018-06-15T17:01:54.422Z,365.67
2018-06-15T17:04:35.096Z,296.43
2018-06-15T17:36:39.281Z,44.43
2018-06-15T17:39:22.871Z,42.53
2018-06-15T17:42:05.615Z,57.57
2018-06-15T17:44:50.716Z,32.93
2018-06-15T17:47:30.668Z,32.80
2018-06-15T17:50:08.013Z,32.60
2018-06-15T17:52:45.936Z,35.00
2018-06-15T17:55:25.553Z,29.40
2018-06-15T17:58:08.275Z,30.13
2018-06-15T18:00:54.114Z,38.43
2018-06-15T18:03:35.501Z,45.10
2018-06-15T18:06:13.776Z,53.23
2018-06-15T18:08:56.453Z,55.60
2018-06-15T18:11:35.872Z,57.37
2018-06-15T18:14:18.095Z,73.10
2018-06-15T18:16:58.656Z,101.33
2018-06-15T18:19:38.892Z,153.07
2018-06-15T18:22:19.016Z,193.80
2018-06-15T18:24:58.090Z,218.07
2018-06-15T18:27:34.092Z,213.03
2018-06-15T18:30:16.035Z,231.30
2018-06-15T18:32:56.637Z,177.87
2018-06-15T18:35:35.297Z,140.47
2018-06-15T18:38:15.970Z,139.37
2018-06-15T18:40:54.957Z,120.63
2018-06-15T18:43:35.451Z,126.77
2018-06-15T18:46:13.475Z,109.87
2018-06-15T18:48:53.930Z,152.57
2018-06-15T18:51:38.114Z,117.33
2018-06-15T18:54:18.314Z,108.33
2018-06-15T18:57:05.231Z,277.50
2018-06-15T18:59:44.557Z,357.10
2018-06-15T19:02:24.728Z,616.53
2018-06-15T19:05:08.195Z,602.13
2018-06-15T19:07:50.011Z,638.10
2018-06-15T19:10:30.174Z,670.27
2018-06-15T19:13:10.056Z,950.23
2018-06-15T19:15:48.231Z,999.90
2018-06-15T19:18:30.036Z,999.90
2018-06-15T19:21:10.993Z,999.90
2018-06-15T19:24:00.049Z,999.90
2018-06-15T19:26:41.312Z,999.90
2018-06-15T19:29:21.815Z,999.90
2018-06-15T19:32:01.015Z,999.90
2018-06-15T19:34:43.103Z,999.90
2018-06-15T19:37:21.556Z,999.90
2018-06-15T19:40:00.192Z,999.90
2018-06-15T19:42:39.883Z,999.90
2018-06-15T19:45:21.669Z,999.90
2018-06-15T19:48:01.896Z,999.90
2018-06-15T19:50:41.533Z,999.90
2018-06-15T19:53:22.923Z,999.90
2018-06-15T19:56:00.086Z,999.90
2018-06-15T19:58:40.717Z,999.90
2018-06-15T20:01:23.753Z,999.90
2018-06-15T20:04:04.880Z,999.90
2018-06-15T20:06:48.971Z,999.90
2018-06-15T20:09:28.991Z,999.90
2018-06-15T20:12:06.935Z,999.90
2018-06-15T20:14:44.319Z,999.90
2018-06-15T20:17:23.276Z,999.90
2018-06-15T20:20:00.977Z,999.90
2018-06-15T20:22:38.475Z,999.90
2018-06-15T20:25:19.616Z,999.90
2018-06-15T20:27:58.851Z,999.90
2018-06-15T20:30:45.751Z,999.90
2018-06-15T20:33:26.236Z,999.90
2018-06-15T20:36:06.259Z,999.90
2018-06-15T20:38:49.332Z,999.90
2018-06-15T20:41:31.312Z,999.90
2018-06-15T20:44:11.090Z,999.90
2018-06-15T20:46:53.994Z,999.90
2018-06-15T20:49:33.943Z,999.90
2018-06-15T20:52:15.812Z,919.17
2018-06-15T20:54:56.351Z,637.37
2018-06-15T20:57:40.059Z,556.20
2018-06-15T21:00:19.861Z,562.30
2018-06-15T21:02:58.293Z,356.90
2018-06-15T22:33:13.029Z,140.73
2018-06-15T22:35:53.379Z,156.57
2018-06-15T22:38:34.388Z,153.63
2018-06-15T22:41:18.259Z,133.67
2018-06-15T22:43:56.996Z,161.13
2018-06-15T22:46:38.357Z,208.47
2018-06-15T22:49:18.787Z,230.27
2018-06-15T22:52:03.813Z,258.20
2018-06-15T22:54:43.355Z,348.30
2018-06-15T22:57:25.489Z,532.30
2018-06-15T23:00:07.691Z,455.23
2018-06-15T23:02:47.631Z,573.70
2018-06-15T23:05:27.234Z,452.77
2018-06-15T23:08:06.992Z,370.00
2018-06-15T23:10:50.061Z,416.07
2018-06-15T23:13:32.114Z,512.57
2018-06-15T23:16:15.494Z,401.93
2018-06-15T23:18:56.270Z,419.40
2018-06-15T23:21:38.593Z,506.70
2018-06-15T23:24:20.494Z,486.80
2018-06-15T23:26:58.429Z,564.03
2018-06-15T23:29:39.192Z,426.23
2018-06-15T23:32:22.517Z,430.37
2018-06-15T23:35:03.100Z,435.80
2018-06-15T23:37:51.968Z,364.93
2018-06-15T23:40:39.297Z,360.50
2018-06-15T23:43:26.947Z,458.67
2018-06-15T23:46:06.934Z,391.40
2018-06-15T23:48:48.369Z,312.30
2018-06-15T23:51:33.429Z,251.40
2018-06-15T23:54:14.528Z,263.30
